sensor_id;sensor_type;location;lat;lon;timestamp;pressure;altitude;pressure_sealevel;temperature;humidity
74834;BME280;63361;52.384;20.930;2022-12-18T00:01:06;102138.97;;;-5.17;89.60
74834;BME280;63361;52.384;20.930;2022-12-18T00:03:38;102120.66;;;-5.28;89.36
74834;BME280;63361;52.384;20.930;2022-12-18T00:06:03;102138.44;;;-5.11;89.71
74834;BME280;63361;52.384;20.930;2022-12-18T00:08:29;102148.59;;;-4.97;88.82
74834;BME280;63361;52.384;20.930;2022-12-18T00:10:54;102149.69;;;-4.99;89.25
74834;BME280;63361;52.384;20.930;2022-12-18T00:13:20;102140.34;;;-5.22;90.12
74834;BME280;63361;52.384;20.930;2022-12-18T00:15:45;102149.41;;;-5.06;89.78
74834;BME280;63361;52.384;20.930;2022-12-18T00:18:11;102158.81;;;-5.03;89.88
74834;BME280;63361;52.384;20.930;2022-12-18T00:20:38;102166.44;;;-5.00;89.58
74834;BME280;63361;52.384;20.930;2022-12-18T00:23:04;102175.88;;;-4.98;89.99
74834;BME280;63361;52.384;20.930;2022-12-18T00:25:33;102171.84;;;-5.02;89.37
74834;BME280;63361;52.384;20.930;2022-12-18T00:27:59;102170.03;;;-5.01;89.96
74834;BME280;63361;52.384;20.930;2022-12-18T00:30:25;102156.28;;;-5.14;90.19
74834;BME280;63361;52.384;20.930;2022-12-18T00:32:50;102173.50;;;-5.01;91.34
74834;BME280;63361;52.384;20.930;2022-12-18T00:35:16;102168.56;;;-4.94;90.12
74834;BME280;63361;52.384;20.930;2022-12-18T00:37:41;102184.34;;;-4.84;88.83
74834;BME280;63361;52.384;20.930;2022-12-18T00:40:07;102172.28;;;-5.06;88.94
74834;BME280;63361;52.384;20.930;2022-12-18T00:42:32;102148.25;;;-5.22;90.23
74834;BME280;63361;52.384;20.930;2022-12-18T00:45:16;102178.91;;;-5.02;89.30
74834;BME280;63361;52.384;20.930;2022-12-18T00:47:42;102196.94;;;-4.98;90.12
74834;BME280;63361;52.384;20.930;2022-12-18T00:50:08;102201.13;;;-4.95;89.25
74834;BME280;63361;52.384;20.930;2022-12-18T00:52:34;102196.09;;;-4.98;89.59
74834;BME280;63361;52.384;20.930;2022-12-18T00:54:59;102199.19;;;-4.93;89.51
74834;BME280;63361;52.384;20.930;2022-12-18T00:57:24;102211.25;;;-4.90;90.09
74834;BME280;63361;52.384;20.930;2022-12-18T00:59:50;102221.47;;;-4.97;90.72
74834;BME280;63361;52.384;20.930;2022-12-18T01:02:15;102221.34;;;-4.96;91.10
74834;BME280;63361;52.384;20.930;2022-12-18T01:04:40;102225.91;;;-4.98;91.19
74834;BME280;63361;52.384;20.930;2022-12-18T01:07:06;102216.78;;;-4.84;89.74
74834;BME280;63361;52.384;20.930;2022-12-18T01:09:31;102195.84;;;-4.95;89.49
74834;BME280;63361;52.384;20.930;2022-12-18T01:11:56;102224.16;;;-4.78;90.04
74834;BME280;63361;52.384;20.930;2022-12-18T01:14:22;102213.38;;;-4.75;89.31
74834;BME280;63361;52.384;20.930;2022-12-18T01:16:47;102206.25;;;-4.84;90.30
74834;BME280;63361;52.384;20.930;2022-12-18T01:19:12;102215.56;;;-4.89;89.20
74834;BME280;63361;52.384;20.930;2022-12-18T01:21:38;102223.06;;;-4.75;88.07
74834;BME280;63361;52.384;20.930;2022-12-18T01:24:03;102222.03;;;-4.93;88.30
74834;BME280;63361;52.384;20.930;2022-12-18T01:26:29;102233.09;;;-5.00;88.41
74834;BME280;63361;52.384;20.930;2022-12-18T01:28:57;102238.22;;;-4.98;87.88
74834;BME280;63361;52.384;20.930;2022-12-18T01:31:25;102235.25;;;-5.14;87.98
74834;BME280;63361;52.384;20.930;2022-12-18T01:33:52;102255.56;;;-5.26;88.65
74834;BME280;63361;52.384;20.930;2022-12-18T01:36:22;102257.50;;;-5.28;87.91
74834;BME280;63361;52.384;20.930;2022-12-18T01:38:48;102257.59;;;-5.39;89.48
74834;BME280;63361;52.384;20.930;2022-12-18T01:41:15;102270.75;;;-5.39;89.09
74834;BME280;63361;52.384;20.930;2022-12-18T01:43:48;102259.31;;;-5.49;88.41
74834;BME280;63361;52.384;20.930;2022-12-18T01:46:14;102273.31;;;-5.49;89.92
74834;BME280;63361;52.384;20.930;2022-12-18T01:48:40;102271.13;;;-5.44;90.08
74834;BME280;63361;52.384;20.930;2022-12-18T01:51:07;102277.22;;;-5.43;88.55
74834;BME280;63361;52.384;20.930;2022-12-18T01:53:33;102281.19;;;-5.49;88.81
74834;BME280;63361;52.384;20.930;2022-12-18T01:55:59;102285.19;;;-5.54;88.50
74834;BME280;63361;52.384;20.930;2022-12-18T01:58:35;102288.97;;;-5.47;88.80
74834;BME280;63361;52.384;20.930;2022-12-18T02:01:04;102285.78;;;-5.51;88.93
74834;BME280;63361;52.384;20.930;2022-12-18T02:03:30;102277.94;;;-5.62;88.79
74834;BME280;63361;52.384;20.930;2022-12-18T02:06:15;102301.41;;;-5.49;88.70
74834;BME280;63361;52.384;20.930;2022-12-18T02:09:02;102309.28;;;-5.49;88.46
74834;BME280;63361;52.384;20.930;2022-12-18T02:11:46;102314.44;;;-5.48;89.00
74834;BME280;63361;52.384;20.930;2022-12-18T02:27:07;102311.38;;;-5.53;88.10
74834;BME280;63361;52.384;20.930;2022-12-18T02:29:50;102307.09;;;-5.65;88.11
74834;BME280;63361;52.384;20.930;2022-12-18T02:32:25;102320.97;;;-5.63;89.47
74834;BME280;63361;52.384;20.930;2022-12-18T02:34:54;102328.00;;;-5.52;88.91
74834;BME280;63361;52.384;20.930;2022-12-18T02:37:21;102316.63;;;-5.53;88.99
74834;BME280;63361;52.384;20.930;2022-12-18T02:39:49;102336.06;;;-5.44;89.04
74834;BME280;63361;52.384;20.930;2022-12-18T02:42:18;102323.75;;;-5.44;88.78
74834;BME280;63361;52.384;20.930;2022-12-18T02:44:47;102332.47;;;-5.43;89.13
74834;BME280;63361;52.384;20.930;2022-12-18T02:47:15;102341.78;;;-5.39;89.10
74834;BME280;63361;52.384;20.930;2022-12-18T03:01:02;102366.09;;;-5.47;87.79
74834;BME280;63361;52.384;20.930;2022-12-18T03:06:05;102375.84;;;-5.58;87.30
74834;BME280;63361;52.384;20.930;2022-12-18T03:08:37;102392.56;;;-5.59;88.50
74834;BME280;63361;52.384;20.930;2022-12-18T03:11:09;102388.78;;;-5.67;88.08
74834;BME280;63361;52.384;20.930;2022-12-18T03:13:43;102393.53;;;-5.60;88.14
74834;BME280;63361;52.384;20.930;2022-12-18T03:16:12;102391.97;;;-5.63;89.48
74834;BME280;63361;52.384;20.930;2022-12-18T03:18:50;102402.97;;;-5.58;87.89
74834;BME280;63361;52.384;20.930;2022-12-18T03:21:19;102400.22;;;-5.56;88.66
74834;BME280;63361;52.384;20.930;2022-12-18T03:23:49;102395.72;;;-5.65;88.32
74834;BME280;63361;52.384;20.930;2022-12-18T03:26:19;102381.03;;;-5.68;88.29
74834;BME280;63361;52.384;20.930;2022-12-18T03:28:54;102391.78;;;-5.71;89.36
74834;BME280;63361;52.384;20.930;2022-12-18T03:31:23;102413.25;;;-5.55;87.37
74834;BME280;63361;52.384;20.930;2022-12-18T03:33:57;102412.41;;;-5.55;87.41
74834;BME280;63361;52.384;20.930;2022-12-18T03:36:24;102404.56;;;-5.67;87.21
74834;BME280;63361;52.384;20.930;2022-12-18T03:38:49;102420.66;;;-5.60;88.79
74834;BME280;63361;52.384;20.930;2022-12-18T03:41:19;102411.81;;;-5.59;87.63
74834;BME280;63361;52.384;20.930;2022-12-18T03:43:54;102431.19;;;-5.60;87.56
74834;BME280;63361;52.384;20.930;2022-12-18T03:52:41;102443.19;;;-5.78;89.05
74834;BME280;63361;52.384;20.930;2022-12-18T03:55:10;102416.38;;;-6.04;89.05
74834;BME280;63361;52.384;20.930;2022-12-18T03:57:37;102438.69;;;-5.87;88.65
74834;BME280;63361;52.384;20.930;2022-12-18T04:00:10;102452.53;;;-5.85;89.33
74834;BME280;63361;52.384;20.930;2022-12-18T04:02:41;102437.66;;;-5.96;88.11
74834;BME280;63361;52.384;20.930;2022-12-18T04:05:09;102443.50;;;-5.92;89.15
74834;BME280;63361;52.384;20.930;2022-12-18T04:07:36;102449.81;;;-5.95;88.39
74834;BME280;63361;52.384;20.930;2022-12-18T04:10:05;102461.78;;;-5.91;88.19
74834;BME280;63361;52.384;20.930;2022-12-18T04:12:31;102462.63;;;-6.01;89.12
74834;BME280;63361;52.384;20.930;2022-12-18T04:14:57;102456.69;;;-6.15;90.71
74834;BME280;63361;52.384;20.930;2022-12-18T04:17:22;102452.34;;;-6.05;89.89
74834;BME280;63361;52.384;20.930;2022-12-18T04:19:47;102465.28;;;-6.13;89.35
74834;BME280;63361;52.384;20.930;2022-12-18T04:22:13;102464.66;;;-6.16;89.60
74834;BME280;63361;52.384;20.930;2022-12-18T04:24:38;102475.41;;;-6.08;89.52
74834;BME280;63361;52.384;20.930;2022-12-18T04:27:04;102478.03;;;-6.08;89.22
74834;BME280;63361;52.384;20.930;2022-12-18T04:29:29;102482.09;;;-6.38;90.03
74834;BME280;63361;52.384;20.930;2022-12-18T04:31:55;102478.75;;;-6.51;91.21
74834;BME280;63361;52.384;20.930;2022-12-18T04:34:20;102470.75;;;-6.49;90.96
74834;BME280;63361;52.384;20.930;2022-12-18T04:36:46;102491.88;;;-6.40;91.90
74834;BME280;63361;52.384;20.930;2022-12-18T04:39:11;102503.50;;;-6.20;90.85
74834;BME280;63361;52.384;20.930;2022-12-18T04:41:37;102496.44;;;-6.19;89.04
74834;BME280;63361;52.384;20.930;2022-12-18T04:44:02;102501.94;;;-6.33;90.00
74834;BME280;63361;52.384;20.930;2022-12-18T04:46:28;102475.03;;;-6.59;90.97
74834;BME280;63361;52.384;20.930;2022-12-18T04:48:53;102484.59;;;-6.58;91.52
74834;BME280;63361;52.384;20.930;2022-12-18T04:51:19;102504.44;;;-6.43;90.30
74834;BME280;63361;52.384;20.930;2022-12-18T04:53:44;102505.84;;;-6.39;90.60
74834;BME280;63361;52.384;20.930;2022-12-18T04:56:12;102519.47;;;-6.45;90.71
74834;BME280;63361;52.384;20.930;2022-12-18T04:58:39;102528.91;;;-6.31;91.21
74834;BME280;63361;52.384;20.930;2022-12-18T05:01:05;102530.22;;;-6.26;91.57
74834;BME280;63361;52.384;20.930;2022-12-18T05:03:31;102524.00;;;-6.25;91.17
74834;BME280;63361;52.384;20.930;2022-12-18T05:05:56;102525.47;;;-6.32;90.75
74834;BME280;63361;52.384;20.930;2022-12-18T05:08:22;102527.84;;;-6.18;91.22
74834;BME280;63361;52.384;20.930;2022-12-18T05:10:48;102523.66;;;-6.43;89.98
74834;BME280;63361;52.384;20.930;2022-12-18T05:13:13;102533.25;;;-6.77;90.65
74834;BME280;63361;52.384;20.930;2022-12-18T05:15:39;102537.56;;;-6.99;92.59
74834;BME280;63361;52.384;20.930;2022-12-18T05:18:04;102544.78;;;-7.14;92.56
74834;BME280;63361;52.384;20.930;2022-12-18T05:20:30;102529.88;;;-7.14;94.00
74834;BME280;63361;52.384;20.930;2022-12-18T05:22:56;102553.84;;;-7.18;93.81
74834;BME280;63361;52.384;20.930;2022-12-18T05:25:22;102551.50;;;-7.47;94.20
74834;BME280;63361;52.384;20.930;2022-12-18T05:27:47;102543.09;;;-7.39;95.49
74834;BME280;63361;52.384;20.930;2022-12-18T05:30:13;102565.44;;;-7.33;95.99
74834;BME280;63361;52.384;20.930;2022-12-18T05:32:39;102561.81;;;-7.20;95.13
74834;BME280;63361;52.384;20.930;2022-12-18T05:35:08;102572.47;;;-7.10;94.35
74834;BME280;63361;52.384;20.930;2022-12-18T05:37:33;102578.97;;;-7.16;94.51
74834;BME280;63361;52.384;20.930;2022-12-18T05:39:59;102585.53;;;-7.21;95.68
74834;BME280;63361;52.384;20.930;2022-12-18T05:42:24;102580.59;;;-7.02;94.77
74834;BME280;63361;52.384;20.930;2022-12-18T05:44:50;102582.06;;;-6.98;94.58
74834;BME280;63361;52.384;20.930;2022-12-18T05:47:15;102581.78;;;-6.82;93.94
74834;BME280;63361;52.384;20.930;2022-12-18T05:49:40;102587.59;;;-6.90;93.68
74834;BME280;63361;52.384;20.930;2022-12-18T05:52:06;102592.25;;;-6.93;94.24
74834;BME280;63361;52.384;20.930;2022-12-18T05:54:31;102588.63;;;-7.16;94.72
74834;BME280;63361;52.384;20.930;2022-12-18T05:56:57;102598.91;;;-7.13;94.49
74834;BME280;63361;52.384;20.930;2022-12-18T05:59:23;102582.19;;;-7.23;95.47
74834;BME280;63361;52.384;20.930;2022-12-18T06:01:49;102607.31;;;-7.08;95.71
74834;BME280;63361;52.384;20.930;2022-12-18T06:04:14;102604.56;;;-7.06;95.85
74834;BME280;63361;52.384;20.930;2022-12-18T06:06:40;102613.75;;;-6.88;94.33
74834;BME280;63361;52.384;20.930;2022-12-18T06:09:05;102609.09;;;-6.85;94.72
74834;BME280;63361;52.384;20.930;2022-12-18T06:11:34;102610.94;;;-6.74;94.76
74834;BME280;63361;52.384;20.930;2022-12-18T06:14:00;102631.59;;;-6.69;94.38
74834;BME280;63361;52.384;20.930;2022-12-18T06:16:27;102627.94;;;-6.56;93.65
74834;BME280;63361;52.384;20.930;2022-12-18T06:18:53;102622.84;;;-6.57;94.06
74834;BME280;63361;52.384;20.930;2022-12-18T06:21:18;102615.53;;;-6.19;91.90
74834;BME280;63361;52.384;20.930;2022-12-18T06:23:43;102635.38;;;-6.15;90.59
74834;BME280;63361;52.384;20.930;2022-12-18T06:26:10;102642.41;;;-6.26;92.53
74834;BME280;63361;52.384;20.930;2022-12-18T06:28:36;102639.94;;;-6.41;92.88
74834;BME280;63361;52.384;20.930;2022-12-18T06:31:05;102631.69;;;-6.47;93.23
74834;BME280;63361;52.384;20.930;2022-12-18T06:33:31;102651.81;;;-6.24;91.28
74834;BME280;63361;52.384;20.930;2022-12-18T06:36:01;102657.44;;;-6.28;91.61
74834;BME280;63361;52.384;20.930;2022-12-18T06:38:27;102644.88;;;-6.25;92.99
74834;BME280;63361;52.384;20.930;2022-12-18T06:40:52;102666.59;;;-5.99;91.64
74834;BME280;63361;52.384;20.930;2022-12-18T06:43:18;102631.22;;;-5.95;91.26
74834;BME280;63361;52.384;20.930;2022-12-18T06:45:43;102665.88;;;-5.79;91.28
74834;BME280;63361;52.384;20.930;2022-12-18T06:48:09;102678.66;;;-5.85;91.58
74834;BME280;63361;52.384;20.930;2022-12-18T06:50:34;102676.63;;;-5.82;91.58
74834;BME280;63361;52.384;20.930;2022-12-18T06:52:59;102664.91;;;-6.00;91.93
74834;BME280;63361;52.384;20.930;2022-12-18T06:55:25;102660.13;;;-6.06;92.97
74834;BME280;63361;52.384;20.930;2022-12-18T06:57:50;102694.19;;;-5.93;93.45
74834;BME280;63361;52.384;20.930;2022-12-18T07:00:16;102685.84;;;-5.98;93.60
74834;BME280;63361;52.384;20.930;2022-12-18T07:02:42;102691.22;;;-5.78;93.02
74834;BME280;63361;52.384;20.930;2022-12-18T07:05:07;102679.41;;;-5.72;92.60
74834;BME280;63361;52.384;20.930;2022-12-18T07:07:34;102693.88;;;-5.44;91.76
74834;BME280;63361;52.384;20.930;2022-12-18T07:09:59;102701.44;;;-5.51;92.08
74834;BME280;63361;52.384;20.930;2022-12-18T07:12:26;102712.06;;;-5.30;91.19
74834;BME280;63361;52.384;20.930;2022-12-18T07:14:52;102693.03;;;-5.67;91.86
74834;BME280;63361;52.384;20.930;2022-12-18T07:17:17;102709.19;;;-5.49;91.27
74834;BME280;63361;52.384;20.930;2022-12-18T07:19:42;102709.94;;;-5.36;90.82
74834;BME280;63361;52.384;20.930;2022-12-18T07:22:08;102725.94;;;-5.28;90.02
74834;BME280;63361;52.384;20.930;2022-12-18T07:24:33;102722.47;;;-5.28;90.73
74834;BME280;63361;52.384;20.930;2022-12-18T07:26:59;102721.88;;;-5.32;90.97
74834;BME280;63361;52.384;20.930;2022-12-18T07:29:25;102708.09;;;-5.58;91.24
74834;BME280;63361;52.384;20.930;2022-12-18T07:31:50;102729.75;;;-5.43;91.75
74834;BME280;63361;52.384;20.930;2022-12-18T07:34:16;102734.09;;;-5.20;90.84
74834;BME280;63361;52.384;20.930;2022-12-18T07:36:42;102728.44;;;-5.15;90.85
74834;BME280;63361;52.384;20.930;2022-12-18T07:39:07;102745.22;;;-4.94;89.23
74834;BME280;63361;52.384;20.930;2022-12-18T07:41:33;102745.69;;;-4.78;89.20
74834;BME280;63361;52.384;20.930;2022-12-18T07:43:58;102758.34;;;-4.72;88.21
74834;BME280;63361;52.384;20.930;2022-12-18T07:46:23;102758.13;;;-4.80;89.01
74834;BME280;63361;52.384;20.930;2022-12-18T07:48:49;102759.09;;;-4.81;89.26
74834;BME280;63361;52.384;20.930;2022-12-18T07:51:14;102757.22;;;-4.47;88.24
74834;BME280;63361;52.384;20.930;2022-12-18T07:53:40;102767.25;;;-4.30;86.90
74834;BME280;63361;52.384;20.930;2022-12-18T07:56:08;102778.53;;;-4.39;86.60
74834;BME280;63361;52.384;20.930;2022-12-18T07:58:35;102781.78;;;-4.46;87.41
74834;BME280;63361;52.384;20.930;2022-12-18T08:01:05;102761.22;;;-4.86;88.57
74834;BME280;63361;52.384;20.930;2022-12-18T08:03:32;102780.25;;;-4.71;88.15
74834;BME280;63361;52.384;20.930;2022-12-18T08:06:02;102792.22;;;-4.56;88.36
74834;BME280;63361;52.384;20.930;2022-12-18T08:08:28;102782.03;;;-4.49;87.76
74834;BME280;63361;52.384;20.930;2022-12-18T08:10:54;102789.19;;;-4.29;87.25
74834;BME280;63361;52.384;20.930;2022-12-18T08:13:20;102782.97;;;-4.07;87.32
74834;BME280;63361;52.384;20.930;2022-12-18T08:15:46;102786.41;;;-3.96;85.31
74834;BME280;63361;52.384;20.930;2022-12-18T08:18:11;102789.56;;;-4.02;84.94
74834;BME280;63361;52.384;20.930;2022-12-18T08:20:36;102796.84;;;-3.94;85.37
74834;BME280;63361;52.384;20.930;2022-12-18T08:23:02;102791.59;;;-3.73;85.50
74834;BME280;63361;52.384;20.930;2022-12-18T08:25:27;102804.75;;;-3.41;83.90
74834;BME280;63361;52.384;20.930;2022-12-18T08:27:52;102783.50;;;-3.40;83.50
74834;BME280;63361;52.384;20.930;2022-12-18T08:30:18;102814.31;;;-3.20;84.71
74834;BME280;63361;52.384;20.930;2022-12-18T08:32:44;102812.72;;;-3.11;83.46
74834;BME280;63361;52.384;20.930;2022-12-18T08:35:09;102825.03;;;-3.21;83.13
74834;BME280;63361;52.384;20.930;2022-12-18T08:37:37;102819.28;;;-3.26;83.56
74834;BME280;63361;52.384;20.930;2022-12-18T08:40:02;102801.81;;;-3.80;84.96
74834;BME280;63361;52.384;20.930;2022-12-18T08:42:28;102807.78;;;-3.99;85.68
74834;BME280;63361;52.384;20.930;2022-12-18T08:45:11;102828.03;;;-3.99;85.85
74834;BME280;63361;52.384;20.930;2022-12-18T08:47:37;102814.00;;;-3.68;85.74
74834;BME280;63361;52.384;20.930;2022-12-18T08:50:02;102828.28;;;-3.70;85.11
74834;BME280;63361;52.384;20.930;2022-12-18T08:52:28;102825.47;;;-3.58;86.10
74834;BME280;63361;52.384;20.930;2022-12-18T08:54:53;102822.84;;;-3.37;85.07
74834;BME280;63361;52.384;20.930;2022-12-18T08:57:18;102827.78;;;-3.23;83.41
74834;BME280;63361;52.384;20.930;2022-12-18T08:59:45;102832.19;;;-3.02;84.74
74834;BME280;63361;52.384;20.930;2022-12-18T09:02:11;102841.72;;;-2.90;83.49
74834;BME280;63361;52.384;20.930;2022-12-18T09:04:36;102812.00;;;-3.13;83.25
74834;BME280;63361;52.384;20.930;2022-12-18T09:07:02;102850.41;;;-3.09;83.59
74834;BME280;63361;52.384;20.930;2022-12-18T09:09:27;102846.66;;;-3.06;83.70
74834;BME280;63361;52.384;20.930;2022-12-18T09:11:53;102841.88;;;-3.33;82.78
74834;BME280;63361;52.384;20.930;2022-12-18T09:14:18;102836.16;;;-3.59;84.46
74834;BME280;63361;52.384;20.930;2022-12-18T09:16:43;102847.28;;;-3.35;83.71
74834;BME280;63361;52.384;20.930;2022-12-18T09:19:09;102859.16;;;-3.29;83.94
74834;BME280;63361;52.384;20.930;2022-12-18T09:21:35;102847.44;;;-3.36;83.75
74834;BME280;63361;52.384;20.930;2022-12-18T09:24:05;102856.38;;;-3.28;84.72
74834;BME280;63361;52.384;20.930;2022-12-18T09:26:30;102855.53;;;-3.28;84.08
74834;BME280;63361;52.384;20.930;2022-12-18T09:28:56;102839.56;;;-3.47;84.34
74834;BME280;63361;52.384;20.930;2022-12-18T09:31:23;102862.06;;;-3.11;83.82
74834;BME280;63361;52.384;20.930;2022-12-18T09:33:49;102840.34;;;-3.15;83.29
74834;BME280;63361;52.384;20.930;2022-12-18T09:36:16;102867.03;;;-2.88;82.88
74834;BME280;63361;52.384;20.930;2022-12-18T09:38:42;102844.56;;;-3.03;82.53
74834;BME280;63361;52.384;20.930;2022-12-18T09:43:58;102845.41;;;-2.72;83.83
74834;BME280;63361;52.384;20.930;2022-12-18T09:46:34;102853.44;;;-2.83;83.51
74834;BME280;63361;52.384;20.930;2022-12-18T09:49:05;102865.59;;;-2.71;83.20
74834;BME280;63361;52.384;20.930;2022-12-18T09:51:37;102859.34;;;-2.70;82.78
74834;BME280;63361;52.384;20.930;2022-12-18T09:54:11;102845.88;;;-2.97;82.78
74834;BME280;63361;52.384;20.930;2022-12-18T09:56:41;102852.81;;;-2.75;82.50
74834;BME280;63361;52.384;20.930;2022-12-18T09:59:18;102856.06;;;-2.93;83.31
74834;BME280;63361;52.384;20.930;2022-12-18T10:01:46;102824.72;;;-2.97;83.12
74834;BME280;63361;52.384;20.930;2022-12-18T10:04:11;102861.38;;;-3.04;83.46
74834;BME280;63361;52.384;20.930;2022-12-18T10:07:05;102878.78;;;-3.01;84.31
74834;BME280;63361;52.384;20.930;2022-12-18T10:14:57;102893.00;;;-2.72;83.33
74834;BME280;63361;52.384;20.930;2022-12-18T10:18:02;102891.78;;;-2.89;83.05
74834;BME280;63361;52.384;20.930;2022-12-18T10:20:47;102893.97;;;-2.73;83.12
74834;BME280;63361;52.384;20.930;2022-12-18T10:25:56;102887.94;;;-3.05;83.56
74834;BME280;63361;52.384;20.930;2022-12-18T10:28:25;102882.56;;;-2.73;82.99
74834;BME280;63361;52.384;20.930;2022-12-18T10:30:51;102857.97;;;-2.95;82.45
74834;BME280;63361;52.384;20.930;2022-12-18T10:33:19;102877.75;;;-2.89;83.07
74834;BME280;63361;52.384;20.930;2022-12-18T10:35:47;102881.69;;;-2.53;82.36
74834;BME280;63361;52.384;20.930;2022-12-18T10:41:05;102875.19;;;-2.70;81.61
74834;BME280;63361;52.384;20.930;2022-12-18T10:43:35;102875.94;;;-2.58;81.26
74834;BME280;63361;52.384;20.930;2022-12-18T10:51:39;102875.41;;;-2.62;79.93
74834;BME280;63361;52.384;20.930;2022-12-18T10:54:07;102887.28;;;-2.77;80.63
74834;BME280;63361;52.384;20.930;2022-12-18T10:56:38;102881.88;;;-2.75;81.41
74834;BME280;63361;52.384;20.930;2022-12-18T10:59:05;102872.28;;;-2.76;80.76
74834;BME280;63361;52.384;20.930;2022-12-18T11:01:55;102869.56;;;-2.86;81.59
74834;BME280;63361;52.384;20.930;2022-12-18T11:04:23;102874.66;;;-2.94;82.72
74834;BME280;63361;52.384;20.930;2022-12-18T11:07:06;102882.97;;;-2.78;82.50
74834;BME280;63361;52.384;20.930;2022-12-18T11:09:34;102879.97;;;-2.64;81.59
74834;BME280;63361;52.384;20.930;2022-12-18T11:12:03;102882.00;;;-2.98;81.85
74834;BME280;63361;52.384;20.930;2022-12-18T11:14:42;102880.16;;;-3.28;83.09
74834;BME280;63361;52.384;20.930;2022-12-18T11:17:22;102873.38;;;-3.21;83.78
74834;BME280;63361;52.384;20.930;2022-12-18T11:19:57;102880.47;;;-2.39;82.74
74834;BME280;63361;52.384;20.930;2022-12-18T11:22:25;102870.50;;;-2.26;79.68
74834;BME280;63361;52.384;20.930;2022-12-18T11:25:23;102892.72;;;-2.48;80.86
74834;BME280;63361;52.384;20.930;2022-12-18T11:27:50;102885.34;;;-3.16;82.36
74834;BME280;63361;52.384;20.930;2022-12-18T11:30:29;102894.00;;;-3.14;83.95
74834;BME280;63361;52.384;20.930;2022-12-18T11:38:07;102894.91;;;-2.53;81.30
74834;BME280;63361;52.384;20.930;2022-12-18T11:40:38;102890.28;;;-2.61;81.30
74834;BME280;63361;52.384;20.930;2022-12-18T11:43:31;102897.75;;;-2.35;81.07
74834;BME280;63361;52.384;20.930;2022-12-18T11:46:07;102891.84;;;-2.08;80.95
74834;BME280;63361;52.384;20.930;2022-12-18T11:48:49;102894.84;;;-1.73;77.88
74834;BME280;63361;52.384;20.930;2022-12-18T11:51:28;102897.31;;;-1.81;78.53
74834;BME280;63361;52.384;20.930;2022-12-18T11:53:55;102876.88;;;-1.69;77.91
74834;BME280;63361;52.384;20.930;2022-12-18T11:56:30;102898.34;;;-1.44;78.86
74834;BME280;63361;52.384;20.930;2022-12-18T12:04:28;102898.47;;;-2.64;81.80
74834;BME280;63361;52.384;20.930;2022-12-18T12:07:24;102904.38;;;-3.02;83.05
74834;BME280;63361;52.384;20.930;2022-12-18T12:18:05;102898.38;;;-3.25;83.35
74834;BME280;63361;52.384;20.930;2022-12-18T12:20:54;102903.53;;;-2.51;81.38
74834;BME280;63361;52.384;20.930;2022-12-18T12:26:35;102906.28;;;-3.04;82.96
74834;BME280;63361;52.384;20.930;2022-12-18T12:29:13;102921.38;;;-3.15;83.61
74834;BME280;63361;52.384;20.930;2022-12-18T12:39:24;102933.88;;;-2.97;83.26
74834;BME280;63361;52.384;20.930;2022-12-18T12:41:51;102932.81;;;-2.94;82.38
74834;BME280;63361;52.384;20.930;2022-12-18T12:44:47;102938.00;;;-3.04;82.53
74834;BME280;63361;52.384;20.930;2022-12-18T12:47:26;102916.41;;;-2.88;83.35
74834;BME280;63361;52.384;20.930;2022-12-18T12:49:54;102916.09;;;-2.95;82.87
74834;BME280;63361;52.384;20.930;2022-12-18T12:52:34;102938.19;;;-2.75;82.34
74834;BME280;63361;52.384;20.930;2022-12-18T12:55:04;102944.97;;;-3.03;82.35
74834;BME280;63361;52.384;20.930;2022-12-18T12:58:05;102951.97;;;-3.13;84.74
74834;BME280;63361;52.384;20.930;2022-12-18T13:00:44;102948.03;;;-3.19;83.60
74834;BME280;63361;52.384;20.930;2022-12-18T13:06:07;102966.53;;;-3.19;84.71
74834;BME280;63361;52.384;20.930;2022-12-18T13:08:58;102963.50;;;-3.46;84.97
74834;BME280;63361;52.384;20.930;2022-12-18T13:11:44;102974.06;;;-3.46;85.74
74834;BME280;63361;52.384;20.930;2022-12-18T13:14:36;102973.88;;;-3.54;86.45
74834;BME280;63361;52.384;20.930;2022-12-18T13:19:52;102964.78;;;-3.29;85.09
74834;BME280;63361;52.384;20.930;2022-12-18T13:25:00;102968.75;;;-3.35;85.60
74834;BME280;63361;52.384;20.930;2022-12-18T13:45:45;102995.88;;;-3.87;87.13
74834;BME280;63361;52.384;20.930;2022-12-18T13:48:23;102996.34;;;-4.04;88.08
74834;BME280;63361;52.384;20.930;2022-12-18T13:51:13;103014.81;;;-3.93;88.29
74834;BME280;63361;52.384;20.930;2022-12-18T13:53:44;102989.03;;;-4.23;88.82
74834;BME280;63361;52.384;20.930;2022-12-18T13:56:16;103007.59;;;-4.25;89.18
74834;BME280;63361;52.384;20.930;2022-12-18T13:58:42;103009.06;;;-4.09;89.08
74834;BME280;63361;52.384;20.930;2022-12-18T14:01:23;103010.97;;;-4.22;89.64
74834;BME280;63361;52.384;20.930;2022-12-18T14:03:49;102999.47;;;-4.33;90.44
74834;BME280;63361;52.384;20.930;2022-12-18T14:06:16;103011.91;;;-4.46;90.47
74834;BME280;63361;52.384;20.930;2022-12-18T14:08:42;103003.53;;;-4.40;90.41
74834;BME280;63361;52.384;20.930;2022-12-18T14:11:19;103012.28;;;-4.39;90.97
74834;BME280;63361;52.384;20.930;2022-12-18T14:13:45;103023.09;;;-4.31;90.36
74834;BME280;63361;52.384;20.930;2022-12-18T14:16:14;102991.88;;;-4.59;90.32
74834;BME280;63361;52.384;20.930;2022-12-18T14:18:54;103006.88;;;-4.49;91.35
74834;BME280;63361;52.384;20.930;2022-12-18T14:21:24;103006.88;;;-4.49;90.71
74834;BME280;63361;52.384;20.930;2022-12-18T14:26:34;103007.00;;;-4.50;90.86
74834;BME280;63361;52.384;20.930;2022-12-18T14:29:09;103004.19;;;-4.71;91.05
74834;BME280;63361;52.384;20.930;2022-12-18T14:31:42;103003.84;;;-4.55;91.84
74834;BME280;63361;52.384;20.930;2022-12-18T14:34:15;103000.13;;;-4.64;91.72
74834;BME280;63361;52.384;20.930;2022-12-18T14:36:40;103015.25;;;-4.55;91.86
74834;BME280;63361;52.384;20.930;2022-12-18T14:39:16;103012.81;;;-4.69;91.65
74834;BME280;63361;52.384;20.930;2022-12-18T14:41:42;103032.84;;;-4.55;92.05